createdAt,value
2023-03-13T00:01:09.972Z,3.06
2023-03-13T00:03:36.844Z,3.04
2023-03-13T00:06:03.978Z,3.08
2023-03-13T00:08:31.001Z,3.05
2023-03-13T00:10:58.169Z,2.94
2023-03-13T00:13:25.183Z,2.96
2023-03-13T00:16:00.261Z,2.82
2023-03-13T00:18:27.037Z,2.80
2023-03-13T00:21:02.069Z,2.70
2023-03-13T00:23:29.668Z,2.61
2023-03-13T00:26:01.779Z,2.60
2023-03-13T00:28:32.394Z,2.46
2023-03-13T00:31:26.859Z,2.50
2023-03-13T00:33:57.494Z,2.47
2023-03-13T00:36:27.425Z,2.34
2023-03-13T00:38:55.681Z,2.36
2023-03-13T00:41:25.195Z,2.26
2023-03-13T00:43:53.356Z,2.21
2023-03-13T00:46:23.643Z,2.25
2023-03-13T00:48:51.325Z,2.23
2023-03-13T00:51:19.679Z,2.20
2023-03-13T00:53:48.795Z,2.20
2023-03-13T00:56:18.464Z,2.21
2023-03-13T00:58:47.148Z,2.11
2023-03-13T01:01:24.809Z,2.11
2023-03-13T01:04:00.524Z,1.98
2023-03-13T01:06:30.205Z,2.01
2023-03-13T01:08:59.270Z,1.86
2023-03-13T01:11:29.747Z,1.93
2023-03-13T01:13:59.820Z,1.94
2023-03-13T01:16:27.905Z,1.88
2023-03-13T01:18:59.097Z,1.95
2023-03-13T01:21:26.352Z,1.89
2023-03-13T01:23:54.723Z,1.86
2023-03-13T01:26:22.552Z,1.74
2023-03-13T01:28:49.725Z,1.73
2023-03-13T01:31:25.231Z,1.68
2023-03-13T01:33:55.889Z,1.69
2023-03-13T01:36:23.352Z,1.69
2023-03-13T01:38:52.340Z,1.59
2023-03-13T01:41:21.029Z,1.54
2023-03-13T01:43:48.517Z,1.54
2023-03-13T01:46:25.271Z,1.56
2023-03-13T01:49:27.590Z,1.49
2023-03-13T01:52:18.634Z,1.45
2023-03-13T01:54:59.469Z,1.42
2023-03-13T01:57:40.191Z,1.47
2023-03-13T02:00:16.861Z,1.51
2023-03-13T02:02:49.015Z,1.45
2023-03-13T02:05:17.408Z,1.42
2023-03-13T02:07:50.801Z,1.39
2023-03-13T02:10:19.144Z,1.38
2023-03-13T02:12:46.067Z,1.41
2023-03-13T02:15:19.218Z,1.40
2023-03-13T02:17:48.216Z,1.40
2023-03-13T02:20:18.639Z,1.24
2023-03-13T02:22:48.972Z,1.38
2023-03-13T02:25:24.186Z,1.35
2023-03-13T02:28:34.049Z,1.29
2023-03-13T02:31:03.811Z,1.20
2023-03-13T02:33:35.586Z,1.34
2023-03-13T02:36:03.999Z,1.37
2023-03-13T02:38:35.057Z,1.38
2023-03-13T02:41:04.717Z,1.39
2023-03-13T02:43:36.899Z,1.39
2023-03-13T02:46:09.572Z,1.37
2023-03-13T02:48:43.368Z,1.31
2023-03-13T02:51:18.690Z,0.93
2023-03-13T02:53:48.526Z,1.28
2023-03-13T02:56:20.306Z,1.14
2023-03-13T02:58:50.360Z,1.15
2023-03-13T03:01:21.642Z,1.16
2023-03-13T03:03:48.981Z,1.23
2023-03-13T03:06:16.082Z,1.25
2023-03-13T03:08:44.024Z,1.27
2023-03-13T03:11:12.413Z,1.24
2023-03-13T03:13:40.408Z,1.11
2023-03-13T03:16:09.809Z,1.09
2023-03-13T03:18:38.564Z,1.02
2023-03-13T03:21:06.718Z,0.91
2023-03-13T03:23:38.086Z,0.91
2023-03-13T03:26:06.476Z,0.87
2023-03-13T03:28:33.869Z,0.86
2023-03-13T03:31:11.896Z,0.80
2023-03-13T03:33:39.916Z,0.93
2023-03-13T03:36:13.930Z,0.86
2023-03-13T03:38:41.317Z,0.83
2023-03-13T03:41:11.217Z,0.80
2023-03-13T03:43:38.297Z,0.85
2023-03-13T03:46:08.047Z,0.84
2023-03-13T03:48:35.491Z,0.76
2023-03-13T03:51:05.929Z,0.71
2023-03-13T03:53:35.759Z,0.72
2023-03-13T03:56:02.868Z,0.69
2023-03-13T03:58:30.165Z,0.63
2023-03-13T04:01:12.875Z,0.73
2023-03-13T04:03:40.617Z,0.62
2023-03-13T04:06:07.686Z,0.62
2023-03-13T04:08:34.603Z,0.58
2023-03-13T04:11:02.723Z,0.52
2023-03-13T04:13:33.681Z,0.55
2023-03-13T04:16:00.910Z,0.56
2023-03-13T04:18:27.992Z,0.65
2023-03-13T04:21:06.145Z,0.67
2023-03-13T04:23:41.773Z,0.50
2023-03-13T04:26:09.030Z,0.46
2023-03-13T04:28:37.018Z,0.42
2023-03-13T04:31:06.599Z,0.41
2023-03-13T04:33:59.795Z,0.44
2023-03-13T04:36:38.875Z,0.39
2023-03-13T04:39:26.120Z,0.41
2023-03-13T04:42:12.382Z,0.47
2023-03-13T04:44:56.237Z,0.43
2023-03-13T04:47:52.461Z,0.27
2023-03-13T04:50:31.689Z,0.44
2023-03-13T04:53:19.361Z,0.49
2023-03-13T04:56:42.340Z,0.51
2023-03-13T04:59:19.173Z,0.61
2023-03-13T05:02:04.353Z,0.64
2023-03-13T05:04:51.156Z,0.64
2023-03-13T05:07:48.681Z,0.71
2023-03-13T05:10:35.022Z,0.75
2023-03-13T05:13:25.389Z,0.89
2023-03-13T05:15:55.309Z,0.84
2023-03-13T05:18:54.792Z,1.13
2023-03-13T05:21:40.031Z,1.20
2023-03-13T05:24:42.155Z,1.21
2023-03-13T05:27:26.810Z,1.22
2023-03-13T05:30:07.458Z,1.28
2023-03-13T05:32:41.840Z,1.34
2023-03-13T05:35:19.696Z,1.43
2023-03-13T05:38:05.129Z,1.62
2023-03-13T05:40:52.361Z,1.77
2023-03-13T05:43:38.176Z,1.98
2023-03-13T05:46:28.209Z,2.22
2023-03-13T05:49:05.706Z,2.31
2023-03-13T05:51:48.883Z,2.39
2023-03-13T05:54:42.149Z,2.60
2023-03-13T05:57:14.682Z,2.75
2023-03-13T06:00:04.424Z,2.91
2023-03-13T06:02:45.149Z,3.03
2023-03-13T06:05:17.199Z,3.09
2023-03-13T06:07:45.292Z,3.22
2023-03-13T06:10:12.656Z,3.35
2023-03-13T06:12:39.975Z,3.51
2023-03-13T06:15:12.124Z,3.67
2023-03-13T06:17:54.664Z,3.88
2023-03-13T06:20:22.507Z,4.03
2023-03-13T06:22:49.488Z,4.20
2023-03-13T06:25:16.471Z,4.44
2023-03-13T06:27:43.648Z,4.45
2023-03-13T06:30:11.204Z,4.67
2023-03-13T06:32:38.474Z,4.77
2023-03-13T06:35:06.146Z,5.02
2023-03-13T06:37:33.827Z,5.26
2023-03-13T06:40:00.744Z,5.33
2023-03-13T06:42:27.671Z,5.49
2023-03-13T06:44:54.847Z,5.62
2023-03-13T06:47:21.914Z,5.87
2023-03-13T06:49:49.204Z,5.93
2023-03-13T06:52:16.250Z,6.26
2023-03-13T06:54:43.115Z,6.26
2023-03-13T06:57:10.037Z,6.47
2023-03-13T06:59:36.935Z,6.61
2023-03-13T07:02:04.704Z,6.70
2023-03-13T07:04:31.489Z,7.62
2023-03-13T07:06:58.489Z,7.66
2023-03-13T07:09:25.538Z,7.47
2023-03-13T07:11:55.401Z,7.47
2023-03-13T07:14:22.509Z,7.55
2023-03-13T07:16:49.598Z,7.74
2023-03-13T07:19:17.520Z,7.83
2023-03-13T07:21:44.539Z,7.80
2023-03-13T07:24:11.556Z,7.88
2023-03-13T07:26:38.906Z,8.02
2023-03-13T07:29:06.176Z,8.24
2023-03-13T07:31:34.153Z,8.30
2023-03-13T07:34:01.674Z,8.34
2023-03-13T07:36:29.945Z,8.41
2023-03-13T07:38:57.105Z,8.54
2023-03-13T07:41:24.015Z,8.79
2023-03-13T07:43:50.914Z,8.81
2023-03-13T07:46:20.084Z,8.89
2023-03-13T07:48:47.808Z,9.09
2023-03-13T07:51:25.276Z,8.89
2023-03-13T07:53:57.407Z,9.04
2023-03-13T07:56:24.666Z,9.32
2023-03-13T07:58:52.203Z,9.35
2023-03-13T08:01:20.379Z,9.52
2023-03-13T08:03:50.752Z,9.68
2023-03-13T08:06:25.049Z,9.70
2023-03-13T08:08:53.932Z,9.98
2023-03-13T08:11:22.536Z,10.10
2023-03-13T08:13:52.457Z,10.41
2023-03-13T08:16:22.361Z,10.49
2023-03-13T08:18:52.142Z,10.33
2023-03-13T08:21:22.080Z,10.20
2023-03-13T08:23:52.397Z,10.18
2023-03-13T08:26:21.126Z,10.13
2023-03-13T08:28:52.029Z,10.40
2023-03-13T08:31:22.833Z,10.45
2023-03-13T08:33:50.519Z,10.44
2023-03-13T08:36:20.841Z,10.45
2023-03-13T08:38:48.194Z,10.38
2023-03-13T08:41:20.759Z,10.56
2023-03-13T08:43:48.624Z,10.62
2023-03-13T08:46:17.823Z,10.67
2023-03-13T08:48:50.853Z,10.71
2023-03-13T08:51:19.368Z,10.89
2023-03-13T08:53:46.893Z,11.19
2023-03-13T08:56:16.740Z,11.59
2023-03-13T08:58:43.932Z,11.42
2023-03-13T09:01:15.074Z,11.70
2023-03-13T09:03:42.561Z,11.91
2023-03-13T09:06:11.274Z,11.83
2023-03-13T09:08:39.707Z,11.64
2023-03-13T09:11:15.839Z,11.80
2023-03-13T09:13:48.069Z,11.82
2023-03-13T09:16:18.152Z,11.93
2023-03-13T09:18:45.863Z,11.99
2023-03-13T09:21:15.879Z,12.01
2023-03-13T09:23:43.242Z,12.01
2023-03-13T09:26:10.675Z,11.82
2023-03-13T09:28:39.483Z,11.87
2023-03-13T09:31:18.097Z,11.65
2023-03-13T09:33:46.585Z,11.85
2023-03-13T09:36:13.505Z,11.74
2023-03-13T09:38:41.422Z,11.78
2023-03-13T09:41:44.131Z,11.72
2023-03-13T09:44:27.061Z,11.43
2023-03-13T09:47:08.410Z,11.74
2023-03-13T09:49:42.445Z,11.91
2023-03-13T09:52:18.322Z,12.15
2023-03-13T09:54:52.490Z,12.08
2023-03-13T09:57:31.721Z,12.15
2023-03-13T10:00:20.216Z,12.22
2023-03-13T10:02:56.720Z,12.17
2023-03-13T10:05:26.600Z,12.17
2023-03-13T10:08:17.769Z,12.17
2023-03-13T10:10:53.062Z,12.21
2023-03-13T10:13:34.094Z,11.94
2023-03-13T10:16:18.211Z,12.10
2023-03-13T10:18:52.157Z,11.98
2023-03-13T10:21:22.241Z,12.12
2023-03-13T10:24:23.461Z,12.21
2023-03-13T10:26:50.847Z,12.28
2023-03-13T10:29:29.495Z,12.20
2023-03-13T10:32:05.922Z,12.24
2023-03-13T10:34:53.871Z,12.39
2023-03-13T10:37:29.732Z,12.13
2023-03-13T10:40:25.201Z,12.18
2023-03-13T10:42:54.213Z,12.33
2023-03-13T10:45:25.096Z,12.36
2023-03-13T10:47:57.481Z,12.49
2023-03-13T10:50:27.485Z,12.53
2023-03-13T10:52:57.885Z,12.65
2023-03-13T10:55:26.244Z,12.69
2023-03-13T10:58:00.500Z,12.53
2023-03-13T11:00:41.244Z,12.40
2023-03-13T11:03:22.294Z,12.57
2023-03-13T11:06:01.319Z,12.79
2023-03-13T11:08:35.287Z,12.84
2023-03-13T11:11:05.259Z,13.13
2023-03-13T11:13:43.054Z,13.18
2023-03-13T11:16:46.799Z,12.94
2023-03-13T11:19:13.868Z,12.68
2023-03-13T11:21:49.914Z,12.65
2023-03-13T11:24:27.665Z,12.73
2023-03-13T11:27:05.394Z,12.77
2023-03-13T11:29:45.733Z,12.90
2023-03-13T11:32:23.083Z,13.05
2023-03-13T11:35:01.689Z,12.93
2023-03-13T11:37:33.268Z,12.83
2023-03-13T11:40:21.385Z,13.05
2023-03-13T11:43:24.979Z,12.96
2023-03-13T11:46:02.448Z,13.12
2023-03-13T11:48:35.274Z,13.29
2023-03-13T11:51:14.493Z,13.14
2023-03-13T11:53:43.864Z,12.98
2023-03-13T11:56:36.772Z,13.02
2023-03-13T11:59:25.359Z,13.13
2023-03-13T12:02:10.739Z,13.06
2023-03-13T12:04:43.907Z,13.27
2023-03-13T12:07:39.529Z,13.45
2023-03-13T12:10:25.201Z,13.39
2023-03-13T12:13:02.741Z,13.23
2023-03-13T12:15:45.658Z,13.12
2023-03-13T12:18:15.694Z,13.23
2023-03-13T12:21:14.694Z,13.10
2023-03-13T12:23:55.371Z,13.05
2023-03-13T12:26:48.927Z,13.34
2023-03-13T12:29:46.756Z,13.51
2023-03-13T12:32:18.515Z,13.66
2023-03-13T12:35:26.288Z,13.74
2023-03-13T12:38:02.234Z,13.53
2023-03-13T12:40:47.923Z,13.47
2023-03-13T12:43:20.295Z,13.42
2023-03-13T12:45:59.559Z,13.63
2023-03-13T12:48:38.577Z,13.58
2023-03-13T12:51:24.042Z,13.37
2023-03-13T12:54:12.575Z,13.33
2023-03-13T12:56:58.159Z,13.21
2023-03-13T12:59:40.170Z,13.13
2023-03-13T13:02:27.163Z,13.10
2023-03-13T13:04:56.321Z,13.26
2023-03-13T13:07:27.634Z,13.27
2023-03-13T13:10:09.754Z,13.31
2023-03-13T13:12:40.990Z,13.46
2023-03-13T13:15:28.020Z,13.50
2023-03-13T13:18:13.793Z,13.39
2023-03-13T13:20:49.646Z,13.52
2023-03-13T13:23:27.985Z,13.65
2023-03-13T13:25:56.765Z,13.54
2023-03-13T13:28:28.718Z,13.60
2023-03-13T13:30:57.116Z,13.58
2023-03-13T13:33:31.031Z,13.62
2023-03-13T13:36:10.111Z,13.62
2023-03-13T13:38:42.288Z,13.65
2023-03-13T13:41:09.304Z,13.84
2023-03-13T13:43:40.641Z,13.78
2023-03-13T13:46:23.015Z,13.81
2023-03-13T13:49:05.231Z,13.81
2023-03-13T13:51:39.148Z,13.73
2023-03-13T13:54:53.442Z,13.67
2023-03-13T13:57:27.841Z,13.77
2023-03-13T13:59:57.602Z,13.69
2023-03-13T14:02:47.544Z,13.66
2023-03-13T14:05:23.504Z,13.67
2023-03-13T14:08:15.663Z,13.74
2023-03-13T14:10:54.372Z,13.74
2023-03-13T14:13:22.707Z,13.63
2023-03-13T14:15:54.385Z,13.48
2023-03-13T14:18:28.658Z,13.47
2023-03-13T14:21:03.159Z,13.43
2023-03-13T14:23:45.139Z,13.36
2023-03-13T14:26:18.177Z,13.36
2023-03-13T14:28:59.596Z,13.38
2023-03-13T14:31:28.277Z,13.38
2023-03-13T14:33:57.519Z,13.46
2023-03-13T14:36:25.150Z,13.43
2023-03-13T14:39:00.233Z,13.45
2023-03-13T14:41:36.501Z,13.23
2023-03-13T14:44:17.156Z,13.19
2023-03-13T14:46:44.979Z,13.23
2023-03-13T14:49:25.518Z,13.20
2023-03-13T14:52:03.478Z,13.06
2023-03-13T14:54:51.664Z,13.21
2023-03-13T14:57:23.308Z,13.17
2023-03-13T14:59:51.816Z,13.23
2023-03-13T15:02:21.937Z,13.33
2023-03-13T15:04:51.161Z,13.35
2023-03-13T15:07:18.728Z,13.30
2023-03-13T15:09:47.300Z,13.31
2023-03-13T15:12:17.177Z,13.11
2023-03-13T15:14:46.842Z,12.85
2023-03-13T15:17:27.813Z,12.81
2023-03-13T15:19:57.495Z,12.71
2023-03-13T15:22:31.301Z,12.77
2023-03-13T15:25:07.641Z,12.58
2023-03-13T15:27:35.684Z,12.61
2023-03-13T15:30:02.759Z,12.57
2023-03-13T15:32:33.816Z,12.55
2023-03-13T15:35:02.170Z,12.41
2023-03-13T15:37:30.682Z,12.44
2023-03-13T15:39:58.182Z,12.30
2023-03-13T15:42:25.599Z,12.15
2023-03-13T15:44:52.746Z,12.22
2023-03-13T15:47:21.750Z,12.13
2023-03-13T15:49:48.817Z,11.93
2023-03-13T15:52:19.453Z,11.94
2023-03-13T15:54:47.078Z,11.80
2023-03-13T15:57:17.334Z,11.74
2023-03-13T15:59:44.584Z,11.73
2023-03-13T16:02:17.328Z,11.67
2023-03-13T16:04:45.352Z,11.52
2023-03-13T16:07:14.267Z,11.44
2023-03-13T16:09:42.231Z,11.38
2023-03-13T16:12:09.894Z,11.30
2023-03-13T16:14:37.239Z,11.14
2023-03-13T16:17:12.076Z,11.03
2023-03-13T16:19:39.128Z,10.94
2023-03-13T16:22:05.933Z,10.82
2023-03-13T16:24:32.848Z,10.71
2023-03-13T16:26:59.813Z,10.59
2023-03-13T16:29:26.807Z,10.56
2023-03-13T16:31:53.682Z,10.46
2023-03-13T16:34:20.634Z,10.28
2023-03-13T16:36:47.483Z,10.27
2023-03-13T16:39:16.667Z,10.23
2023-03-13T16:41:43.645Z,10.20
2023-03-13T16:44:10.851Z,10.09
2023-03-13T16:46:39.986Z,10.05
2023-03-13T16:49:11.597Z,10.00
2023-03-13T16:51:40.205Z,9.94
2023-03-13T16:54:07.239Z,9.95
2023-03-13T16:56:36.656Z,9.89
2023-03-13T16:59:08.731Z,9.83
2023-03-13T17:01:36.094Z,9.79
2023-03-13T17:04:03.224Z,9.77
2023-03-13T17:06:44.830Z,9.69
2023-03-13T17:09:15.324Z,9.53
2023-03-13T17:11:42.501Z,9.48
2023-03-13T17:14:10.006Z,9.27
2023-03-13T17:16:42.568Z,9.23
2023-03-13T17:19:16.990Z,9.03
2023-03-13T17:21:44.040Z,8.94
2023-03-13T17:24:11.008Z,8.80
2023-03-13T17:26:39.385Z,8.55
2023-03-13T17:29:08.177Z,8.41
2023-03-13T17:31:38.573Z,8.29
2023-03-13T17:34:06.668Z,8.13
2023-03-13T17:36:34.948Z,8.05
2023-03-13T17:39:04.616Z,7.88
2023-03-13T17:41:33.664Z,7.75
2023-03-13T17:44:00.846Z,7.67
2023-03-13T17:46:35.060Z,7.44
2023-03-13T17:49:03.358Z,7.28
2023-03-13T17:51:32.384Z,7.28
2023-03-13T17:54:00.227Z,7.17
2023-03-13T17:56:30.263Z,7.11
2023-03-13T17:58:59.640Z,7.01
2023-03-13T18:01:29.050Z,7.02
2023-03-13T18:03:56.697Z,7.00
2023-03-13T18:06:27.753Z,6.90
2023-03-13T18:08:56.230Z,6.75
2023-03-13T18:11:24.963Z,6.62
2023-03-13T18:13:52.492Z,6.48
2023-03-13T18:16:37.499Z,6.47
2023-03-13T18:19:06.400Z,6.37
2023-03-13T18:21:34.108Z,6.31
2023-03-13T18:24:00.945Z,6.24
2023-03-13T18:26:37.030Z,6.20
2023-03-13T18:29:12.388Z,6.10
2023-03-13T18:31:41.892Z,6.01
2023-03-13T18:34:09.860Z,5.93
2023-03-13T18:36:37.570Z,5.85
2023-03-13T18:39:08.798Z,5.74
2023-03-13T18:41:36.090Z,5.54
2023-03-13T18:44:02.949Z,5.55
2023-03-13T18:46:31.895Z,5.47
2023-03-13T18:49:01.020Z,5.48
2023-03-13T18:51:28.728Z,5.55
2023-03-13T18:53:56.822Z,5.48
2023-03-13T18:56:26.893Z,5.42
2023-03-13T18:58:55.274Z,5.45
2023-03-13T19:01:24.713Z,5.45
2023-03-13T19:03:52.007Z,5.42
2023-03-13T19:06:28.997Z,5.56
2023-03-13T19:08:59.234Z,5.59
2023-03-13T19:11:29.196Z,5.56
2023-03-13T19:13:56.857Z,5.54
2023-03-13T19:16:26.803Z,5.51
2023-03-13T19:18:53.917Z,5.44
2023-03-13T19:21:25.149Z,5.40
2023-03-13T19:23:52.847Z,5.44
2023-03-13T19:26:31.923Z,5.49
2023-03-13T19:28:59.867Z,5.70
2023-03-13T19:31:27.378Z,5.81
2023-03-13T19:33:54.598Z,5.88
2023-03-13T19:36:24.209Z,5.86
2023-03-13T19:38:51.562Z,5.83
2023-03-13T19:41:18.548Z,5.88
2023-03-13T19:43:47.862Z,5.96
2023-03-13T19:46:22.200Z,5.85
2023-03-13T19:48:51.710Z,5.83
2023-03-13T19:51:18.667Z,5.78
2023-03-13T19:53:46.468Z,5.84
2023-03-13T19:56:24.779Z,5.77
2023-03-13T19:58:58.465Z,5.64
2023-03-13T20:01:25.590Z,5.49
2023-03-13T20:03:52.784Z,5.32
2023-03-13T20:06:30.379Z,5.28
2023-03-13T20:08:59.739Z,5.11
2023-03-13T20:11:27.875Z,5.16
2023-03-13T20:13:55.618Z,5.18
2023-03-13T20:16:25.694Z,5.19
2023-03-13T20:18:52.935Z,5.11
2023-03-13T20:21:20.040Z,5.02
2023-03-13T20:23:49.392Z,4.87
2023-03-13T20:26:18.891Z,4.82
2023-03-13T20:28:48.219Z,4.71
2023-03-13T20:31:17.490Z,4.75
2023-03-13T20:33:44.387Z,4.68
2023-03-13T20:36:17.118Z,4.55
2023-03-13T20:38:44.131Z,4.46
2023-03-13T20:41:11.968Z,4.39
2023-03-13T20:43:39.741Z,4.34
2023-03-13T20:46:09.939Z,4.25
2023-03-13T20:48:39.558Z,4.23
2023-03-13T20:51:08.567Z,4.10
2023-03-13T20:53:41.101Z,3.94
2023-03-13T20:56:09.652Z,3.94
2023-03-13T20:58:37.408Z,3.83
2023-03-13T21:01:06.069Z,3.79
2023-03-13T21:03:36.016Z,3.57
2023-03-13T21:06:09.620Z,3.59
2023-03-13T21:08:38.664Z,3.46
2023-03-13T21:11:13.270Z,3.40
2023-03-13T21:13:40.328Z,3.29
2023-03-13T21:16:07.721Z,3.31
2023-03-13T21:18:34.759Z,3.29
2023-03-13T21:21:07.162Z,3.28
2023-03-13T21:23:34.013Z,3.21
2023-03-13T21:26:00.963Z,3.20
2023-03-13T21:28:28.667Z,3.21
2023-03-13T21:30:56.211Z,3.22
2023-03-13T21:33:23.887Z,3.25
2023-03-13T21:35:51.187Z,3.08
2023-03-13T21:38:18.185Z,3.09
2023-03-13T21:40:45.527Z,3.03
2023-03-13T21:43:12.442Z,2.93
2023-03-13T21:45:39.383Z,2.84
2023-03-13T21:48:06.364Z,2.75
2023-03-13T21:50:33.237Z,2.77
2023-03-13T21:53:00.155Z,2.75
2023-03-13T21:55:27.236Z,2.66
2023-03-13T21:57:54.048Z,2.61
2023-03-13T22:00:21.329Z,2.60
2023-03-13T22:02:48.272Z,2.49
2023-03-13T22:05:15.029Z,2.43
2023-03-13T22:07:42.085Z,2.40
2023-03-13T22:10:09.748Z,2.36
2023-03-13T22:12:37.546Z,2.19
2023-03-13T22:15:04.842Z,2.24
2023-03-13T22:17:31.852Z,2.12
2023-03-13T22:19:58.717Z,2.16
2023-03-13T22:22:25.836Z,2.16
2023-03-13T22:24:54.259Z,2.08
2023-03-13T22:27:23.359Z,2.06
2023-03-13T22:29:50.488Z,1.94
2023-03-13T22:32:17.437Z,2.04
2023-03-13T22:34:47.194Z,1.86
2023-03-13T22:37:14.596Z,1.91
2023-03-13T22:39:41.443Z,1.83
2023-03-13T22:42:08.358Z,1.83
2023-03-13T22:44:35.259Z,1.81
2023-03-13T22:47:02.182Z,1.83
2023-03-13T22:49:29.287Z,1.73
2023-03-13T22:51:56.175Z,1.72
2023-03-13T22:54:23.232Z,1.76
2023-03-13T22:56:49.997Z,1.80
2023-03-13T22:59:17.016Z,1.74
2023-03-13T23:01:43.768Z,1.66
2023-03-13T23:04:10.867Z,1.60
2023-03-13T23:06:38.037Z,1.68
2023-03-13T23:09:05.508Z,1.66
2023-03-13T23:11:32.609Z,1.62
2023-03-13T23:14:00.046Z,1.62
2023-03-13T23:16:26.971Z,1.50
2023-03-13T23:18:54.024Z,1.58
2023-03-13T23:21:20.901Z,1.53
2023-03-13T23:23:48.921Z,1.53
2023-03-13T23:26:16.502Z,1.51
2023-03-13T23:28:43.340Z,1.50
2023-03-13T23:31:12.277Z,1.53
2023-03-13T23:33:39.701Z,1.53
2023-03-13T23:36:12.616Z,1.52
2023-03-13T23:38:39.671Z,1.49
2023-03-13T23:41:08.273Z,1.39
2023-03-13T23:43:35.644Z,1.41
2023-03-13T23:46:02.572Z,1.50
2023-03-13T23:48:30.432Z,1.49
2023-03-13T23:50:57.482Z,1.45
2023-03-13T23:53:24.703Z,1.29
2023-03-13T23:55:58.724Z,1.20
2023-03-13T23:58:25.748Z,1.25
